Time;durP1;ratioP1;P1;durP2;ratioP2;P2;SDS_P1;SDS_P2;PMS_P1;PMS_P2;Temp;Humidity;BMP_temperature;BMP_pressure;BME280_temperature;BME280_humidity;BME280_pressure;Samples;Min_cycle;Max_cycle;Signal;HPM_P1;HPM_P2
2023/06/15 00:00:48;;;;;;;1999.90;999.90;;;;;;;30.18;25.96;101965.00;5030598;28;20142;-65
2023/06/15 00:03:13;;;;;;;1999.90;999.90;;;;;;;30.34;25.63;101955.75;5049152;28;20033;-65
2023/06/15 00:05:38;;;;;;;1999.90;999.90;;;;;;;30.61;25.29;101953.66;5060205;28;20545;-66
2023/06/15 00:08:04;;;;;;;1999.90;999.90;;;;;;;31.02;25.24;101972.06;5070078;28;20028;-65
2023/06/15 00:10:30;;;;;;;1999.90;999.90;;;;;;;30.17;26.08;101971.38;5051292;28;20031;-65
2023/06/15 00:12:56;;;;;;;1999.90;999.90;;;;;;;30.78;25.16;101967.66;5033034;28;20085;-65
2023/06/15 00:15:21;;;;;;;1999.90;999.90;;;;;;;30.52;26.73;101975.94;5066487;28;20032;-65
2023/06/15 00:17:47;;;;;;;1999.90;999.90;;;;;;;29.98;27.47;101976.41;5046066;28;20374;-65
2023/06/15 00:20:13;;;;;;;1999.90;999.90;;;;;;;29.70;27.77;101967.66;5048364;28;20033;-66
2023/06/15 00:22:40;;;;;;;1999.90;999.90;;;;;;;29.81;27.49;101970.41;5061605;28;20032;-65
2023/06/15 00:25:07;;;;;;;1999.90;999.90;;;;;;;30.28;27.53;101973.22;5043271;28;20032;-65
2023/06/15 00:27:36;;;;;;;1999.90;999.90;;;;;;;29.59;27.90;101977.41;5068475;28;20477;-65
2023/06/15 00:30:04;;;;;;;1999.90;999.90;;;;;;;30.38;27.13;101976.13;5048803;28;20029;-65
2023/06/15 00:32:30;;;;;;;1999.90;999.90;;;;;;;30.10;28.09;101970.09;5049467;28;20032;-65
2023/06/15 00:34:55;;;;;;;1999.90;999.90;;;;;;;30.20;27.75;101973.84;5069062;28;20166;-65
2023/06/15 00:37:21;;;;;;;1999.90;999.90;;;;;;;29.91;27.66;101979.59;5050713;28;20490;-65
2023/06/15 00:39:46;;;;;;;1999.90;999.90;;;;;;;29.89;27.70;101989.59;5033101;28;20025;-65
2023/06/15 00:42:11;;;;;;;1999.90;999.90;;;;;;;29.95;28.20;101972.09;5048754;28;20052;-65
2023/06/15 00:44:37;;;;;;;1999.90;999.90;;;;;;;29.51;28.05;101974.41;5067303;28;20575;-64
2023/06/15 00:47:03;;;;;;;1999.90;999.90;;;;;;;29.76;27.85;101975.31;5051346;28;20364;-65
2023/06/15 00:49:28;;;;;;;1999.90;999.90;;;;;;;29.02;29.17;101977.91;5035406;28;20037;-73
2023/06/15 00:51:56;;;;;;;1999.90;999.90;;;;;;;29.66;28.80;101982.34;5040013;28;20040;-71
2023/06/15 00:54:23;;;;;;;1999.90;999.90;;;;;;;28.83;29.26;101973.81;5058855;28;20461;-71
2023/06/15 00:56:52;;;;;;;1999.90;999.90;;;;;;;28.72;29.78;101968.31;5067686;28;20043;-72
2023/06/15 00:59:18;;;;;;;1999.90;999.90;;;;;;;29.24;29.22;101970.03;5068596;28;20081;-72
2023/06/15 01:01:47;;;;;;;1999.90;999.90;;;;;;;28.97;29.63;101972.84;5088833;28;20063;-72
2023/06/15 01:04:14;;;;;;;1999.90;999.90;;;;;;;28.85;29.52;101979.97;5072230;28;20114;-71
2023/06/15 01:06:42;;;;;;;1999.90;999.90;;;;;;;28.98;29.45;101982.63;5060138;28;20056;-72
2023/06/15 01:09:11;;;;;;;1999.90;999.90;;;;;;;28.50;29.74;101985.91;5052115;28;20473;-71
2023/06/15 01:11:37;;;;;;;1999.90;999.90;;;;;;;29.01;30.02;101982.41;5050892;28;20024;-73
2023/06/15 01:14:04;;;;;;;1999.90;999.90;;;;;;;28.18;30.62;101978.19;5065580;28;20051;-72
2023/06/15 01:16:41;;;;;;;1999.90;999.90;;;;;;;28.63;29.79;101982.38;5070866;28;20020;-72
2023/06/15 01:19:29;;;;;;;1999.90;999.90;;;;;;;28.49;30.57;101986.84;5069849;28;20033;-73
2023/06/15 01:21:59;;;;;;;1999.90;999.90;;;;;;;28.12;31.22;101989.34;5076474;28;20024;-72
2023/06/15 01:24:35;;;;;;;1999.90;999.90;;;;;;;28.11;30.90;101987.63;5071805;28;20094;-74
2023/06/15 01:27:04;;;;;;;1999.90;999.90;;;;;;;27.82;31.32;101993.06;5061241;28;20028;-73
2023/06/15 01:29:34;;;;;;;1999.90;999.90;;;;;;;28.18;30.98;101986.25;5056075;28;20036;-73
2023/06/15 01:32:02;;;;;;;1999.90;999.90;;;;;;;28.14;31.41;101975.78;5064864;28;20067;-73
2023/06/15 01:34:28;;;;;;;1999.90;999.90;;;;;;;28.69;30.56;101980.16;5075270;28;20035;-74
2023/06/15 01:36:53;;;;;;;1999.90;999.90;;;;;;;28.52;30.61;101983.09;5074041;28;20032;-74
2023/06/15 01:39:18;;;;;;;1999.90;999.90;;;;;;;28.51;31.37;101976.88;5093947;28;20031;-73
2023/06/15 01:41:45;;;;;;;1999.90;999.90;;;;;;;27.89;31.79;101993.50;5072396;28;20457;-73
2023/06/15 01:44:11;;;;;;;1999.90;999.90;;;;;;;28.06;31.64;101984.38;5062345;28;20085;-74
2023/06/15 01:46:37;;;;;;;1999.90;999.90;;;;;;;28.39;31.50;101980.41;5075778;28;20074;-74
2023/06/15 01:49:03;;;;;;;1999.90;999.90;;;;;;;28.32;31.54;101984.47;5054729;28;20041;-74
2023/06/15 01:51:30;;;;;;;1999.90;999.90;;;;;;;28.34;31.49;101983.38;5055637;28;20081;-73
2023/06/15 01:53:55;;;;;;;1999.90;999.90;;;;;;;28.39;31.68;101981.25;5072683;28;20036;-72
2023/06/15 01:56:21;;;;;;;1999.90;999.90;;;;;;;27.97;32.70;101995.69;5076591;28;20051;-72
2023/06/15 01:58:46;;;;;;;1999.90;999.90;;;;;;;28.03;31.83;101995.34;5089180;28;20039;-74
2023/06/15 02:01:12;;;;;;;1999.90;999.90;;;;;;;27.56;32.61;101979.50;5074808;28;20040;-73
2023/06/15 02:03:37;;;;;;;1999.90;999.90;;;;;;;27.99;31.86;101988.41;5072056;28;20032;-73
2023/06/15 02:06:02;;;;;;;1999.90;999.90;;;;;;;27.93;32.39;101993.22;5055601;28;20029;-74
2023/06/15 02:08:28;;;;;;;1999.90;999.90;;;;;;;27.35;33.03;101994.25;5054713;28;20046;-73
2023/06/15 02:10:53;;;;;;;1999.90;999.90;;;;;;;27.90;32.61;101990.75;5078324;28;20034;-73
2023/06/15 02:13:18;;;;;;;1999.90;999.90;;;;;;;28.79;30.64;101983.06;5060120;28;20032;-73
2023/06/15 02:15:44;;;;;;;1999.90;999.90;;;;;;;28.18;32.00;101988.94;5088524;28;20448;-73
2023/06/15 02:18:14;;;;;;;1999.90;999.90;;;;;;;28.63;31.40;101987.75;5093384;28;20131;-73
2023/06/15 02:20:43;;;;;;;1999.90;999.90;;;;;;;27.91;32.23;101997.81;5089365;28;20028;-73
2023/06/15 02:23:10;;;;;;;1999.90;999.90;;;;;;;27.89;32.19;101999.75;5063731;28;20093;-73
2023/06/15 02:25:36;;;;;;;1999.90;999.90;;;;;;;28.45;31.65;102001.47;5072251;28;20376;-73
2023/06/15 02:28:01;;;;;;;1999.90;999.90;;;;;;;28.54;31.61;102003.53;5075835;28;20035;-73
2023/06/15 02:30:27;;;;;;;1999.90;999.90;;;;;;;28.23;32.08;102002.94;5091108;28;20060;-74
2023/06/15 02:32:53;;;;;;;1999.90;999.90;;;;;;;28.33;32.22;102003.19;5058096;28;20032;-74
2023/06/15 02:35:19;;;;;;;1999.90;999.90;;;;;;;28.19;32.12;102005.91;5058088;28;20024;-73
2023/06/15 02:37:45;;;;;;;1999.90;999.90;;;;;;;27.39;33.52;102006.53;5070625;28;20087;-73
2023/06/15 02:40:11;;;;;;;1999.90;999.90;;;;;;;28.23;32.70;102005.63;5054543;28;20059;-73
2023/06/15 02:42:37;;;;;;;1999.90;999.90;;;;;;;28.33;32.27;102002.28;5054387;28;20028;-73
2023/06/15 02:45:04;;;;;;;1999.90;999.90;;;;;;;28.14;32.53;102010.72;5071809;28;20032;-74
2023/06/15 02:47:29;;;;;;;1999.90;999.90;;;;;;;27.86;33.09;102010.72;5059470;28;20092;-73
2023/06/15 02:49:58;;;;;;;1999.90;999.90;;;;;;;28.22;32.13;102003.91;5073258;28;20439;-73
2023/06/15 02:52:24;;;;;;;1999.90;999.90;;;;;;;27.90;32.60;102006.84;5087868;28;20056;-73
2023/06/15 02:54:50;;;;;;;1999.90;999.90;;;;;;;28.21;32.17;102010.22;5053689;28;20054;-73
2023/06/15 02:57:15;;;;;;;1999.90;999.90;;;;;;;28.14;32.45;101998.16;5084198;28;20144;-74
2023/06/15 02:59:41;;;;;;;1999.90;999.90;;;;;;;28.31;32.35;101999.72;5070453;28;20511;-73
2023/06/15 03:02:07;;;;;;;1999.90;999.90;;;;;;;27.93;32.62;102009.34;5074670;28;20028;-73
2023/06/15 03:04:37;;;;;;;1999.90;999.90;;;;;;;28.16;32.27;102006.97;5062184;28;20024;-71
2023/06/15 03:07:03;;;;;;;1999.90;999.90;;;;;;;28.30;32.62;102002.50;5055533;28;20032;-73
2023/06/15 03:09:29;;;;;;;1999.90;999.90;;;;;;;28.31;32.36;102005.09;5091847;28;20105;-74
2023/06/15 03:11:54;;;;;;;1999.90;999.90;;;;;;;28.49;32.15;102010.19;5074493;28;20388;-74
2023/06/15 03:14:19;;;;;;;1999.90;999.90;;;;;;;27.72;33.51;102014.25;5054157;28;20024;-74
2023/06/15 03:16:47;;;;;;;1999.90;999.90;;;;;;;28.10;32.78;102020.84;5060403;28;20118;-73
2023/06/15 03:19:15;;;;;;;1999.90;999.90;;;;;;;28.11;32.76;102009.13;5090982;28;20125;-74
2023/06/15 03:21:41;;;;;;;1999.90;999.90;;;;;;;27.90;33.26;102009.53;5071461;28;20031;-73
2023/06/15 03:24:08;;;;;;;1999.90;999.90;;;;;;;27.86;33.19;102018.75;5088153;28;20028;-75
2023/06/15 03:26:33;;;;;;;1999.90;999.90;;;;;;;28.02;33.02;102015.09;5070386;28;20042;-73
2023/06/15 03:29:00;;;;;;;1999.90;999.90;;;;;;;27.86;33.14;102016.06;5069982;28;20082;-73
2023/06/15 03:31:28;;;;;;;1999.90;999.90;;;;;;;28.46;32.26;102013.94;5101577;28;20016;-70
2023/06/15 03:33:54;;;;;;;1999.90;999.90;;;;;;;27.42;33.82;102007.22;5071758;28;20024;-72
2023/06/15 03:36:19;;;;;;;1999.90;999.90;;;;;;;27.36;34.20;102009.44;5071820;28;20091;-71
2023/06/15 03:38:45;;;;;;;1999.90;999.90;;;;;;;27.88;33.56;102021.34;5071419;28;20032;-71
2023/06/15 03:41:11;;;;;;;1999.90;999.90;;;;;;;28.15;32.88;102015.16;5082186;28;20036;-71
2023/06/15 03:43:37;;;;;;;1999.90;999.90;;;;;;;28.08;32.89;102014.69;5075181;28;20020;-72
2023/06/15 03:46:04;;;;;;;1999.90;999.90;;;;;;;28.03;32.98;102017.69;5091311;28;20020;-71
2023/06/15 03:48:30;;;;;;;1999.90;999.90;;;;;;;27.49;34.17;102020.25;5070318;28;20104;-72
2023/06/15 03:50:56;;;;;;;1999.90;999.90;;;;;;;27.02;34.36;102019.53;5062602;28;20056;-72
2023/06/15 03:53:23;;;;;;;1999.90;999.90;;;;;;;27.86;33.71;102024.13;5054738;28;20387;-72
2023/06/15 03:55:48;;;;;;;1999.90;999.90;;;;;;;27.58;34.19;102017.84;5072636;28;20127;-72
2023/06/15 03:58:14;;;;;;;1999.90;999.90;;;;;;;27.89;33.81;102021.25;5090436;28;20119;-72
2023/06/15 04:00:40;;;;;;;1999.90;999.90;;;;;;;27.89;33.43;102015.88;5090467;28;20024;-71
2023/06/15 04:03:06;;;;;;;1999.90;999.90;;;;;;;27.61;33.73;102021.31;5091472;28;20028;-71
2023/06/15 04:05:32;;;;;;;1999.90;999.90;;;;;;;27.49;34.36;102021.13;5080340;28;20111;-71
2023/06/15 04:07:59;;;;;;;1999.90;999.90;;;;;;;27.59;34.06;102019.56;5081963;28;20119;-73
2023/06/15 04:10:25;;;;;;;1999.90;999.90;;;;;;;27.29;34.61;102022.34;5054486;28;20024;-71
2023/06/15 04:12:50;;;;;;;1999.90;999.90;;;;;;;27.59;34.04;102024.94;5052280;28;20020;-71
2023/06/15 04:15:16;;;;;;;1999.90;999.90;;;;;;;27.73;34.20;102028.56;5053379;28;20728;-71
2023/06/15 04:17:42;;;;;;;1999.90;999.90;;;;;;;27.59;34.33;102027.63;5062495;28;20024;-71
2023/06/15 04:20:08;;;;;;;1999.90;999.90;;;;;;;27.57;34.45;102026.88;5064113;28;20384;-71
2023/06/15 04:22:37;;;;;;;1999.90;999.90;;;;;;;27.88;33.79;102034.78;5072019;28;20023;-71
2023/06/15 04:25:03;;;;;;;1999.90;999.90;;;;;;;27.71;33.91;102033.16;5072835;28;20383;-71
2023/06/15 04:27:29;;;;;;;1999.90;999.90;;;;;;;28.10;34.13;102032.44;5064607;28;20453;-71
2023/06/15 04:29:55;;;;;;;1999.90;999.90;;;;;;;28.41;32.67;102038.47;5072436;28;20440;-71
2023/06/15 04:32:20;;;;;;;1999.90;999.90;;;;;;;28.11;33.22;102038.69;5070284;28;20554;-71
2023/06/15 04:34:46;;;;;;;1999.90;999.90;;;;;;;28.02;33.86;102042.81;5070264;28;20024;-72
2023/06/15 04:37:16;;;;;;;1999.90;999.90;;;;;;;27.71;34.06;102038.53;5082475;28;20045;-73
2023/06/15 04:39:42;;;;;;;1999.90;999.90;;;;;;;28.04;33.25;102045.41;5090502;28;20066;-72
2023/06/15 04:42:09;;;;;;;1999.90;999.90;;;;;;;28.81;32.16;102040.31;5071348;28;20669;-72
2023/06/15 04:44:37;;;;;;;1999.90;999.90;;;;;;;28.53;33.24;102036.75;5069865;28;20093;-72
2023/06/15 04:47:06;;;;;;;1999.90;999.90;;;;;;;29.50;31.51;102037.31;5051800;28;20086;-73
2023/06/15 04:49:31;;;;;;;1999.90;999.90;;;;;;;30.71;29.82;102044.66;5077712;28;20050;-73
2023/06/15 04:51:57;;;;;;;1999.90;999.90;;;;;;;31.23;28.47;102043.31;5083799;28;20020;-73
2023/06/15 04:54:22;;;;;;;1999.90;999.90;;;;;;;32.35;27.63;102047.84;5058192;28;20020;-72
2023/06/15 04:56:48;;;;;;;1999.90;999.90;;;;;;;33.01;26.52;102054.91;5066388;28;20031;-71
2023/06/15 04:59:13;;;;;;;1999.90;999.90;;;;;;;34.14;25.20;102048.47;5071204;28;20396;-72
2023/06/15 05:01:39;;;;;;;1999.90;999.90;;;;;;;34.31;25.17;102047.81;5069948;28;20142;-71
2023/06/15 05:04:05;;;;;;;1999.90;999.90;;;;;;;35.07;24.55;102050.72;5065930;28;20157;-72
2023/06/15 05:06:30;;;;;;;1999.90;999.90;;;;;;;34.77;24.18;102056.19;5056329;28;20454;-73
2023/06/15 05:08:56;;;;;;;1999.90;999.90;;;;;;;34.32;25.27;102057.66;5063468;28;20056;-72
2023/06/15 05:11:21;;;;;;;1999.90;999.90;;;;;;;35.52;23.48;102054.56;5055093;28;20035;-72
2023/06/15 05:13:46;;;;;;;1999.90;999.90;;;;;;;35.23;24.38;102066.38;5074705;28;20093;-71
2023/06/15 05:16:12;;;;;;;1999.90;999.90;;;;;;;33.76;25.74;102060.94;5055830;28;20021;-72
2023/06/15 05:18:38;;;;;;;1999.90;999.90;;;;;;;33.03;26.79;102063.72;5054555;28;20017;-72
2023/06/15 05:21:03;;;;;;;1999.90;999.90;;;;;;;33.12;26.56;102060.22;5062373;28;20024;-73
2023/06/15 05:23:29;;;;;;;1999.90;999.90;;;;;;;33.99;25.74;102059.75;5058281;28;20028;-73
2023/06/15 05:25:54;;;;;;;1999.90;999.90;;;;;;;33.55;26.91;102052.88;5070810;28;20523;-71
2023/06/15 05:28:20;;;;;;;1999.90;999.90;;;;;;;32.63;26.96;102054.44;5075542;28;20391;-71
2023/06/15 05:30:45;;;;;;;1999.90;999.90;;;;;;;32.23;27.08;102061.41;5072364;28;20524;-71
2023/06/15 05:33:11;;;;;;;1999.90;999.90;;;;;;;31.73;27.94;102059.16;5075675;28;20028;-72
2023/06/15 05:35:36;;;;;;;1999.90;999.90;;;;;;;32.33;26.71;102055.22;5061104;28;20055;-74
2023/06/15 05:38:01;;;;;;;1999.90;999.90;;;;;;;31.74;27.82;102057.31;5054828;28;20032;-73
2023/06/15 05:40:27;;;;;;;1999.90;999.90;;;;;;;31.58;27.63;102061.22;5058277;28;20032;-71
2023/06/15 05:42:52;;;;;;;1999.90;999.90;;;;;;;30.87;28.73;102055.97;5072877;28;20119;-72
2023/06/15 05:45:17;;;;;;;1999.90;999.90;;;;;;;30.83;29.11;102054.50;5073430;28;20029;-72
2023/06/15 05:47:43;;;;;;;1999.90;999.90;;;;;;;30.75;29.05;102062.34;5057341;28;20028;-72
2023/06/15 05:50:09;;;;;;;1999.90;999.90;;;;;;;31.57;28.35;102064.03;5073691;28;20031;-70
2023/06/15 05:52:37;;;;;;;1999.90;999.90;;;;;;;31.22;28.09;102057.78;5056884;28;20066;-71
2023/06/15 05:55:03;;;;;;;1999.90;999.90;;;;;;;30.98;28.93;102065.06;5054951;28;20039;-71
2023/06/15 05:57:29;;;;;;;1999.90;999.90;;;;;;;29.00;31.17;102072.16;5078687;28;20024;-72
2023/06/15 05:59:54;;;;;;;1999.90;999.90;;;;;;;30.05;29.97;102069.34;5083447;28;20385;-71
2023/06/15 06:02:20;;;;;;;1999.90;999.90;;;;;;;31.06;29.09;102073.47;5055930;28;20032;-72
2023/06/15 06:04:45;;;;;;;1999.90;999.90;;;;;;;30.54;29.30;102071.09;5060656;28;20035;-72
2023/06/15 06:07:11;;;;;;;1999.90;999.90;;;;;;;31.05;28.46;102063.63;5057880;28;20024;-72
2023/06/15 06:09:39;;;;;;;1999.90;999.90;;;;;;;31.35;27.98;102059.50;5059550;28;20029;-74
2023/06/15 06:12:05;;;;;;;1999.90;999.90;;;;;;;32.38;27.61;102074.63;5062603;28;20027;-72
2023/06/15 06:14:30;;;;;;;1999.90;999.90;;;;;;;33.40;25.50;102065.94;5055664;28;20024;-72
2023/06/15 06:16:56;;;;;;;1999.90;999.90;;;;;;;35.35;23.66;102073.38;5074084;28;20029;-71
2023/06/15 06:19:23;;;;;;;1999.90;999.90;;;;;;;36.85;21.16;102080.28;5073673;28;20024;-73
2023/06/15 06:21:48;;;;;;;1999.90;999.90;;;;;;;36.52;22.11;102069.13;5079525;28;20066;-72
2023/06/15 06:24:13;;;;;;;1999.90;999.90;;;;;;;38.49;19.72;102068.31;5088224;28;20063;-72
2023/06/15 06:26:39;;;;;;;1999.90;999.90;;;;;;;39.79;19.17;102072.78;5061312;28;20059;-72
2023/06/15 06:29:04;;;;;;;1999.90;999.90;;;;;;;39.45;18.24;102079.44;5090872;28;20499;-72
2023/06/15 06:31:30;;;;;;;1999.90;999.90;;;;;;;39.79;18.45;102075.53;5086857;28;20473;-73
2023/06/15 06:33:56;;;;;;;1999.90;999.90;;;;;;;40.34;18.69;102074.50;5077570;28;20036;-74
2023/06/15 06:36:21;;;;;;;1999.90;999.90;;;;;;;41.21;16.90;102070.41;5052725;28;20044;-73
2023/06/15 06:38:47;;;;;;;1999.90;999.90;;;;;;;41.00;17.19;102071.19;5080454;28;20432;-73
2023/06/15 06:41:14;;;;;;;1999.90;999.90;;;;;;;41.53;17.54;102078.44;5070740;28;20467;-74
2023/06/15 06:43:39;;;;;;;1999.90;999.90;;;;;;;41.11;17.51;102074.47;5052589;28;20028;-72
2023/06/15 06:46:05;;;;;;;1999.90;999.90;;;;;;;41.85;16.68;102065.34;5052985;28;20029;-73
2023/06/15 06:48:30;;;;;;;1999.90;999.90;;;;;;;42.24;17.07;102076.94;5064107;28;20533;-73
2023/06/15 06:50:55;;;;;;;1999.90;999.90;;;;;;;42.28;16.03;102079.09;5070867;28;20030;-73
2023/06/15 06:53:21;;;;;;;1999.90;999.90;;;;;;;41.28;16.98;102076.00;5056242;28;20036;-74
2023/06/15 06:55:47;;;;;;;1999.90;999.90;;;;;;;41.98;15.89;102076.47;5000509;28;1120506;-73
2023/06/15 06:58:13;;;;;;;1999.90;999.90;;;;;;;41.48;17.82;102075.44;5054555;28;20029;-72
2023/06/15 07:00:39;;;;;;;1999.90;999.90;;;;;;;40.80;17.35;102072.75;5063664;28;20041;-72
2023/06/15 07:03:04;;;;;;;1999.90;999.90;;;;;;;41.51;16.87;102075.06;5064556;28;20388;-72
2023/06/15 07:05:30;;;;;;;1999.90;999.90;;;;;;;43.25;16.23;102076.66;5072513;28;20052;-72
2023/06/15 07:07:56;;;;;;;1999.90;999.90;;;;;;;43.60;16.39;102082.13;5053180;28;20479;-72
2023/06/15 07:10:21;;;;;;;1999.90;999.90;;;;;;;43.47;16.98;102073.81;5071056;28;20802;-72
2023/06/15 07:12:47;;;;;;;1999.90;999.90;;;;;;;44.02;14.83;102080.16;5059903;28;20472;-74
2023/06/15 07:15:13;;;;;;;1999.90;999.90;;;;;;;43.95;16.00;102079.28;5066810;28;20432;-72
2023/06/15 07:17:38;;;;;;;1999.90;999.90;;;;;;;44.31;14.33;102091.88;5078573;28;20504;-70
2023/06/15 07:20:05;;;;;;;1999.90;999.90;;;;;;;44.63;15.92;102089.31;5062531;28;20036;-70
2023/06/15 07:22:30;;;;;;;1122.93;999.90;;;;;;;44.11;14.76;102079.97;5052563;28;20031;-70
2023/06/15 07:24:56;;;;;;;1116.22;998.70;;;;;;;44.54;14.41;102093.34;5050888;28;20483;-72
2023/06/15 07:27:21;;;;;;;1999.90;999.90;;;;;;;45.44;13.47;102081.72;5051428;28;20043;-71
2023/06/15 07:29:47;;;;;;;1999.90;999.90;;;;;;;45.43;14.48;102091.06;5084438;28;20039;-71
2023/06/15 07:32:13;;;;;;;1999.90;999.90;;;;;;;45.40;13.42;102095.09;5051114;28;20021;-71
2023/06/15 07:34:39;;;;;;;1999.90;999.90;;;;;;;45.60;14.95;102088.66;5057212;28;20024;-71
2023/06/15 07:37:05;;;;;;;1999.90;999.90;;;;;;;46.70;13.26;102093.03;5075602;28;20553;-71
2023/06/15 07:39:31;;;;;;;1999.90;999.90;;;;;;;46.00;13.36;102094.00;5055557;28;20033;-71
2023/06/15 07:41:56;;;;;;;1999.90;999.90;;;;;;;44.99;14.23;102093.50;5069412;28;20055;-72
2023/06/15 07:44:21;;;;;;;1999.90;999.90;;;;;;;45.92;13.65;102090.63;5052123;28;20024;-71
2023/06/15 07:46:47;;;;;;;1999.90;999.90;;;;;;;46.00;13.51;102091.22;5050617;28;20032;-71
2023/06/15 07:49:12;;;;;;;1533.70;981.85;;;;;;;44.91;14.04;102102.00;5052326;28;20025;-71
2023/06/15 07:51:38;;;;;;;1999.90;999.90;;;;;;;45.95;13.89;102091.03;5069928;28;20028;-71
2023/06/15 07:54:04;;;;;;;1999.90;999.90;;;;;;;46.01;12.43;102089.31;5071632;28;20034;-71
2023/06/15 07:56:29;;;;;;;1999.90;999.90;;;;;;;45.00;14.99;102091.59;5052403;28;20048;-71
2023/06/15 07:58:54;;;;;;;1999.90;999.90;;;;;;;44.82;13.51;102092.28;5043574;28;20032;-71
2023/06/15 08:01:20;;;;;;;1999.90;999.90;;;;;;;44.64;14.25;102085.50;5033994;28;20067;-72
2023/06/15 08:03:45;;;;;;;1999.90;999.90;;;;;;;44.44;15.94;102092.94;5049759;28;20029;-71
2023/06/15 08:06:11;;;;;;;1999.90;999.90;;;;;;;44.70;12.35;102090.19;5072537;28;20102;-72
2023/06/15 08:08:36;;;;;;;1999.90;999.90;;;;;;;46.58;12.56;102089.28;5058266;28;20392;-72
2023/06/15 08:11:05;;;;;;;1999.90;999.90;;;;;;;47.32;12.92;102083.84;5053901;28;20036;-64
2023/06/15 08:13:30;;;;;;;1999.90;999.90;;;;;;;48.32;11.39;102083.50;5061068;28;20036;-63
2023/06/15 08:15:56;;;;;;;1999.90;999.90;;;;;;;47.95;11.10;102083.66;5050973;28;20354;-63
2023/06/15 08:18:21;;;;;;;1999.90;999.90;;;;;;;46.54;12.14;102077.00;5054143;28;20050;-63
2023/06/15 08:20:46;;;;;;;1999.90;999.90;;;;;;;45.15;12.78;102091.38;5046792;28;20058;-63
2023/06/15 08:23:12;;;;;;;1999.90;999.90;;;;;;;45.18;12.45;102102.00;5061480;28;20035;-63
2023/06/15 08:25:38;;;;;;;1999.90;999.90;;;;;;;45.79;12.34;102092.38;5030542;28;20226;-64
2023/06/15 08:28:03;;;;;;;1999.90;999.90;;;;;;;46.97;12.34;102089.97;5032676;28;20561;-64
2023/06/15 08:30:30;;;;;;;1999.90;999.90;;;;;;;46.29;11.85;102097.19;5035811;28;20106;-66
2023/06/15 08:32:55;;;;;;;1999.90;999.90;;;;;;;45.53;11.87;102093.38;5048486;28;20111;-63
2023/06/15 08:35:20;;;;;;;1267.32;948.15;;;;;;;43.62;12.84;102093.78;5047914;28;20136;-63
2023/06/15 08:37:46;;;;;;;1030.13;935.70;;;;;;;46.70;10.88;102095.78;5053109;28;20115;-64
2023/06/15 08:40:12;;;;;;;1025.38;932.42;;;;;;;48.20;10.38;102084.34;5033551;28;20035;-64
2023/06/15 08:42:38;;;;;;;1011.13;920.75;;;;;;;47.18;9.83;102091.44;5029316;28;20152;-64
2023/06/15 08:45:08;;;;;;;1031.28;937.53;;;;;;;46.56;10.90;102099.72;5062383;28;20029;-64
2023/06/15 08:47:37;;;;;;;1018.13;927.03;;;;;;;46.48;11.01;102094.47;5049537;28;20064;-64
2023/06/15 08:50:04;;;;;;;1999.90;999.90;;;;;;;46.00;12.04;102096.75;5050121;28;20025;-64
2023/06/15 08:52:33;;;;;;;1022.35;929.92;;;;;;;45.30;11.91;102094.72;5030588;28;20036;-63
2023/06/15 08:55:00;;;;;;;1999.90;999.90;;;;;;;46.71;12.52;102089.16;5046519;28;20535;-63
2023/06/15 08:57:27;;;;;;;1037.43;943.45;;;;;;;47.18;11.28;102093.38;5068164;28;20042;-64
2023/06/15 08:59:53;;;;;;;1040.25;944.70;;;;;;;46.99;11.09;102085.06;5061197;28;20024;-64
2023/06/15 09:02:21;;;;;;;1011.28;920.97;;;;;;;46.28;10.73;102089.97;5089217;28;20024;-64
2023/06/15 09:04:52;;;;;;;1021.40;928.95;;;;;;;48.12;10.85;102097.63;5086974;28;20043;-64
2023/06/15 09:07:18;;;;;;;981.47;896.80;;;;;;;49.10;10.11;102092.53;5078286;28;20472;-64
2023/06/15 09:10:09;;;;;;;970.67;887.67;;;;;;;47.79;10.68;102093.47;5088769;28;20604;-64
2023/06/15 09:12:45;;;;;;;975.05;891.85;;;;;;;47.50;11.17;102087.66;5070298;28;20105;-64
2023/06/15 09:15:16;;;;;;;989.00;902.13;;;;;;;47.76;10.62;102093.91;5051211;28;20047;-64
2023/06/15 09:17:41;;;;;;;990.78;903.13;;;;;;;48.41;10.74;102082.88;5061945;28;20028;-64
2023/06/15 09:20:08;;;;;;;964.35;881.85;;;;;;;47.43;11.19;102089.69;5089413;28;20047;-64
2023/06/15 09:22:43;;;;;;;1007.72;916.88;;;;;;;47.27;11.91;102086.47;5071160;28;20047;-64
2023/06/15 09:25:16;;;;;;;1018.33;926.15;;;;;;;46.94;11.98;102086.81;5050501;28;20086;-64
2023/06/15 09:27:54;;;;;;;981.60;896.33;;;;;;;46.98;10.89;102083.38;5065281;28;20126;-64
2023/06/15 09:30:20;;;;;;;1040.15;943.72;;;;;;;44.83;13.01;102092.06;5068205;28;20036;-64
2023/06/15 09:32:46;;;;;;;1999.90;999.90;;;;;;;46.70;12.54;102081.09;5070028;28;20039;-64
2023/06/15 09:35:11;;;;;;;1056.60;957.45;;;;;;;46.97;11.59;102089.97;5060671;28;20496;-64
2023/06/15 09:37:37;;;;;;;1999.90;999.90;;;;;;;46.29;12.74;102086.16;5074851;28;20048;-64
2023/06/15 09:40:10;;;;;;;1048.55;950.83;;;;;;;46.28;13.18;102087.22;5082495;28;20081;-64
2023/06/15 09:42:39;;;;;;;1029.32;935.05;;;;;;;47.32;11.05;102081.06;5057943;28;20024;-64
2023/06/15 09:45:06;;;;;;;1038.78;942.95;;;;;;;45.59;12.47;102080.59;5057877;28;20556;-63
2023/06/15 09:47:32;;;;;;;1077.68;973.70;;;;;;;46.28;12.83;102086.34;5067741;28;20040;-64
2023/06/15 09:50:01;;;;;;;1060.55;960.00;;;;;;;45.14;12.73;102086.94;5079684;28;20025;-64
2023/06/15 09:52:26;;;;;;;1074.35;970.88;;;;;;;45.18;12.81;102090.97;5063946;28;20032;-64
2023/06/15 09:54:54;;;;;;;1999.90;999.90;;;;;;;45.70;13.19;102083.53;5061008;28;20043;-64
2023/06/15 09:57:20;;;;;;;1999.90;999.90;;;;;;;46.08;12.18;102076.28;5065119;28;20468;-65
2023/06/15 09:59:46;;;;;;;1061.55;960.17;;;;;;;44.60;12.34;102089.75;5066624;28;20033;-64
2023/06/15 10:02:15;;;;;;;1999.90;999.90;;;;;;;44.53;13.93;102081.47;5057110;28;20369;-64
2023/06/15 10:04:45;;;;;;;1999.90;999.90;;;;;;;45.91;12.61;102078.75;5081971;28;20063;-64
2023/06/15 10:07:12;;;;;;;1999.90;999.90;;;;;;;43.87;14.13;102084.97;5089282;28;20441;-64
2023/06/15 10:09:44;;;;;;;1999.90;999.90;;;;;;;44.62;13.53;102086.78;5062010;28;20114;-64
2023/06/15 10:12:16;;;;;;;1086.20;981.42;;;;;;;43.15;13.54;102087.19;5053431;28;20028;-64
2023/06/15 10:14:55;;;;;;;1309.80;981.17;;;;;;;43.03;13.74;102082.25;5078780;28;20122;-64
2023/06/15 10:17:32;;;;;;;1999.90;999.90;;;;;;;44.04;13.47;102086.28;5090152;28;20020;-64
2023/06/15 10:20:08;;;;;;;1075.28;973.63;;;;;;;43.14;12.62;102088.25;5068335;28;20031;-64
2023/06/15 10:22:39;;;;;;;1080.97;975.78;;;;;;;43.55;13.31;102084.66;5066768;28;20036;-64
2023/06/15 10:25:06;;;;;;;1096.20;988.53;;;;;;;41.33;14.60;102084.50;5081812;28;20031;-64
2023/06/15 10:27:32;;;;;;;1999.90;999.90;;;;;;;39.61;17.30;102079.41;5091512;28;20028;-64
2023/06/15 10:30:01;;;;;;;1999.90;999.90;;;;;;;40.99;16.88;102087.81;5090782;28;20504;-63
2023/06/15 10:32:46;;;;;;;1999.90;999.90;;;;;;;41.34;14.93;102077.97;5082749;28;20495;-64
2023/06/15 10:35:28;;;;;;;1999.90;999.90;;;;;;;42.34;15.27;102081.06;5053028;28;20024;-63
2023/06/15 10:38:11;;;;;;;1999.90;999.90;;;;;;;43.29;14.93;102077.94;5058430;28;20032;-64
2023/06/15 10:40:47;;;;;;;1125.82;999.90;;;;;;;43.38;12.59;102073.97;5063281;28;20028;-64
2023/06/15 10:43:20;;;;;;;1066.32;965.97;;;;;;;43.43;11.86;102072.50;5054167;28;20426;-64
2023/06/15 10:45:46;;;;;;;1081.65;976.65;;;;;;;44.59;12.74;102070.63;5056699;28;20039;-64